createdAt,value
2018-03-17T00:00:42.398Z,-1.40
2018-03-17T00:03:10.681Z,-1.40
2018-03-17T00:05:38.948Z,-1.60
2018-03-17T00:08:07.240Z,-1.70
2018-03-17T00:10:35.503Z,-1.60
2018-03-17T00:13:03.784Z,-1.50
2018-03-17T00:15:32.048Z,-1.60
2018-03-17T00:18:00.331Z,-1.60
2018-03-17T00:20:28.628Z,-1.90
2018-03-17T00:22:56.931Z,-2.00
2018-03-17T00:25:25.330Z,-2.10
2018-03-17T00:27:53.624Z,-2.10
2018-03-17T00:30:22.648Z,-2.20
2018-03-17T00:32:51.768Z,-2.20
2018-03-17T00:35:20.031Z,-2.20
2018-03-17T00:37:48.322Z,-2.20
2018-03-17T00:40:16.588Z,-2.30
2018-03-17T00:42:44.864Z,-2.40
2018-03-17T00:45:13.147Z,-2.30
2018-03-17T00:47:41.452Z,-2.30
2018-03-17T00:50:10.505Z,-2.40
2018-03-17T00:52:38.783Z,-2.40
2018-03-17T00:55:07.067Z,-2.50
2018-03-17T00:57:35.335Z,-2.50
2018-03-17T01:00:03.624Z,-2.60
2018-03-17T01:02:31.888Z,-2.60
2018-03-17T01:05:00.208Z,-2.60
2018-03-17T01:07:28.574Z,-2.60
2018-03-17T01:09:56.818Z,-2.70
2018-03-17T01:12:25.112Z,-2.70
2018-03-17T01:14:53.388Z,-2.60
2018-03-17T01:17:21.691Z,-2.70
2018-03-17T01:19:50.065Z,-2.80
2018-03-17T01:22:18.348Z,-2.90
2018-03-17T01:24:46.625Z,-3.00
2018-03-17T01:27:15.000Z,-2.90
2018-03-17T01:29:43.273Z,-2.90
2018-03-17T01:32:11.570Z,-3.00
2018-03-17T01:34:40.656Z,-3.00
2018-03-17T01:37:10.485Z,-3.10
2018-03-17T01:39:38.751Z,-3.10
2018-03-17T01:42:07.828Z,-3.00
2018-03-17T01:44:36.087Z,-3.10
2018-03-17T01:47:04.384Z,-3.00
2018-03-17T01:49:32.765Z,-3.00
2018-03-17T01:52:01.050Z,-3.00
2018-03-17T01:54:32.127Z,-2.90
2018-03-17T01:57:01.161Z,-3.30
2018-03-17T01:59:29.452Z,-3.30
2018-03-17T02:01:57.712Z,-3.40
2018-03-17T02:04:25.999Z,-3.40
2018-03-17T02:06:54.273Z,-3.40
2018-03-17T02:09:22.561Z,-3.40
2018-03-17T02:11:50.830Z,-3.40
2018-03-17T02:14:19.132Z,-3.40
2018-03-17T02:16:47.402Z,-3.50
2018-03-17T02:19:15.676Z,-3.50
2018-03-17T02:21:43.964Z,-3.40
2018-03-17T02:24:13.767Z,-3.40
2018-03-17T02:26:42.063Z,-3.40
2018-03-17T02:29:11.105Z,-3.40
2018-03-17T02:31:39.416Z,-3.40
2018-03-17T02:34:07.688Z,-3.40
2018-03-17T02:36:35.985Z,-3.30
2018-03-17T02:39:04.266Z,-3.20
2018-03-17T02:41:32.547Z,-3.20
2018-03-17T02:44:00.906Z,-3.30
2018-03-17T02:46:29.211Z,-3.40
2018-03-17T02:48:58.248Z,-3.30
2018-03-17T02:51:26.543Z,-3.40
2018-03-17T02:53:54.803Z,-3.20
2018-03-17T02:56:23.110Z,-3.20
2018-03-17T02:58:51.412Z,-3.30
2018-03-17T03:01:19.698Z,-3.20
2018-03-17T03:03:48.734Z,-3.20
2018-03-17T03:06:17.028Z,-3.20
2018-03-17T03:08:45.306Z,-3.20
2018-03-17T03:11:13.592Z,-3.10
2018-03-17T03:13:41.847Z,-3.10
2018-03-17T03:16:10.136Z,-3.10
2018-03-17T03:18:38.416Z,-3.00
2018-03-17T03:21:06.716Z,-3.00
2018-03-17T03:23:35.096Z,-3.10
2018-03-17T03:26:03.373Z,-3.20
2018-03-17T03:28:31.655Z,-3.30
2018-03-17T03:31:00.692Z,-3.30
2018-03-17T03:33:29.009Z,-3.40
2018-03-17T03:35:57.267Z,-3.40
2018-03-17T03:38:25.582Z,-3.30
2018-03-17T03:40:53.940Z,-3.20
2018-03-17T03:43:22.222Z,-3.40
2018-03-17T03:45:50.507Z,-3.40
2018-03-17T03:48:18.815Z,-3.60
2018-03-17T03:50:47.856Z,-3.70
2018-03-17T03:53:16.155Z,-3.60
2018-03-17T03:55:44.452Z,-3.60
2018-03-17T03:58:12.711Z,-3.50
2018-03-17T04:00:41.000Z,-3.50
2018-03-17T04:03:10.049Z,-3.50
2018-03-17T04:05:38.332Z,-3.60
2018-03-17T04:08:06.614Z,-3.50
2018-03-17T04:10:34.916Z,-3.50
2018-03-17T04:13:03.197Z,-3.40
2018-03-17T04:15:31.464Z,-3.50
2018-03-17T04:17:59.835Z,-3.30
2018-03-17T04:20:28.248Z,-3.40
2018-03-17T04:22:56.534Z,-3.50
2018-03-17T04:25:25.577Z,-3.30
2018-03-17T04:27:53.968Z,-3.30
2018-03-17T04:30:22.229Z,-3.50
2018-03-17T04:32:50.512Z,-3.60
2018-03-17T04:35:18.786Z,-3.60
2018-03-17T04:37:47.191Z,-3.60
2018-03-17T04:40:15.468Z,-3.60
2018-03-17T04:42:43.752Z,-3.50
2018-03-17T04:45:13.564Z,-3.40
2018-03-17T04:47:42.607Z,-3.60
2018-03-17T04:50:10.904Z,-3.60
2018-03-17T04:52:39.176Z,-3.60
2018-03-17T04:55:07.467Z,-3.80
2018-03-17T04:57:35.735Z,-3.80
2018-03-17T05:00:04.059Z,-3.70
2018-03-17T05:02:32.305Z,-3.80
2018-03-17T05:05:00.628Z,-3.70
2018-03-17T05:07:28.981Z,-3.70
2018-03-17T05:09:57.285Z,-3.70
2018-03-17T05:12:25.551Z,-3.80
2018-03-17T05:14:54.597Z,-3.80
2018-03-17T05:17:22.892Z,-3.80
2018-03-17T05:19:51.173Z,-3.90
2018-03-17T05:22:19.452Z,-3.90
2018-03-17T05:24:47.728Z,-4.10
2018-03-17T05:27:16.032Z,-3.90
2018-03-17T05:29:44.300Z,-3.90
2018-03-17T05:32:13.366Z,-4.00
2018-03-17T05:34:41.632Z,-3.90
2018-03-17T05:37:09.979Z,-4.10
2018-03-17T05:39:38.208Z,-4.10
2018-03-17T05:42:06.496Z,-4.20
2018-03-17T05:44:34.784Z,-4.30
2018-03-17T05:47:03.836Z,-4.10
2018-03-17T05:49:32.249Z,-4.10
2018-03-17T05:52:00.532Z,-4.20
2018-03-17T05:54:28.810Z,-4.20
2018-03-17T05:56:57.072Z,-4.20
2018-03-17T05:59:25.456Z,-4.10
2018-03-17T06:01:53.828Z,-4.10
2018-03-17T06:04:22.111Z,-4.00
2018-03-17T06:06:50.397Z,-3.90
2018-03-17T06:09:18.671Z,-3.80
2018-03-17T06:11:46.960Z,-3.90
2018-03-17T06:14:16.001Z,-3.80
2018-03-17T06:16:44.338Z,-3.90
2018-03-17T06:19:13.377Z,-3.70
2018-03-17T06:21:41.657Z,-3.70
2018-03-17T06:24:09.935Z,-3.90
2018-03-17T06:26:38.212Z,-3.90
2018-03-17T06:29:06.489Z,-3.80
2018-03-17T06:31:34.774Z,-3.80
2018-03-17T06:34:03.041Z,-3.70
2018-03-17T06:36:31.354Z,-3.80
2018-03-17T06:38:59.651Z,-3.90
2018-03-17T06:41:27.904Z,-3.80
2018-03-17T06:43:57.708Z,-3.90
2018-03-17T06:46:25.984Z,-3.90
2018-03-17T06:48:54.365Z,-3.90
2018-03-17T06:51:22.744Z,-3.90
2018-03-17T06:53:51.137Z,-3.80
2018-03-17T06:56:19.400Z,-3.90
2018-03-17T06:58:47.717Z,-3.90
2018-03-17T07:01:15.989Z,-3.90
2018-03-17T07:03:44.278Z,-3.70
2018-03-17T07:06:13.319Z,-3.60
2018-03-17T07:08:41.913Z,-3.60
2018-03-17T07:11:10.269Z,-3.60
2018-03-17T07:13:38.584Z,-3.50
2018-03-17T07:16:06.860Z,-3.60
2018-03-17T07:18:35.135Z,-3.60
2018-03-17T07:21:03.421Z,-3.50
2018-03-17T07:23:31.712Z,-3.40
2018-03-17T07:26:00.796Z,-3.40
2018-03-17T07:28:29.056Z,-3.50
2018-03-17T07:30:57.346Z,-3.50
2018-03-17T07:33:25.611Z,-3.60
2018-03-17T07:35:53.923Z,-3.50
2018-03-17T07:38:22.188Z,-3.50
2018-03-17T07:40:50.458Z,-3.60
2018-03-17T07:43:18.753Z,-3.50
2018-03-17T07:45:47.132Z,-3.40
2018-03-17T07:48:15.419Z,-3.30
2018-03-17T07:50:44.529Z,-3.20
2018-03-17T07:53:13.589Z,-3.10
2018-03-17T07:55:41.855Z,-3.10
2018-03-17T07:58:10.131Z,-3.30
2018-03-17T08:00:38.395Z,-3.40
2018-03-17T08:03:06.687Z,-3.30
2018-03-17T08:05:35.065Z,-3.40
2018-03-17T08:08:03.356Z,-3.10
2018-03-17T08:10:33.141Z,-3.00
2018-03-17T08:13:01.445Z,-3.00
2018-03-17T08:15:29.850Z,-2.70
2018-03-17T08:17:58.895Z,-2.50
2018-03-17T08:20:27.188Z,-2.50
2018-03-17T08:22:55.448Z,-2.70
2018-03-17T08:25:23.725Z,-2.60
2018-03-17T08:27:52.000Z,-2.30
2018-03-17T08:30:20.278Z,-2.30
2018-03-17T08:32:48.554Z,-2.20
2018-03-17T08:35:16.830Z,-2.10
2018-03-17T08:37:45.079Z,-2.30
2018-03-17T08:40:15.025Z,-0.90
2018-03-17T08:42:43.322Z,-0.90
2018-03-17T08:45:11.692Z,-1.10
2018-03-17T08:47:39.974Z,-1.60
2018-03-17T08:50:08.239Z,-1.60
2018-03-17T08:52:36.509Z,-2.00
2018-03-17T08:55:04.781Z,-1.90
2018-03-17T08:57:33.053Z,-1.70
2018-03-17T09:00:01.362Z,-1.80
2018-03-17T09:02:29.650Z,-1.80
2018-03-17T09:04:57.905Z,-1.90
2018-03-17T09:07:26.210Z,-1.80
2018-03-17T09:09:54.521Z,-1.60
2018-03-17T09:12:22.780Z,-1.60
2018-03-17T09:14:51.808Z,-1.30
2018-03-17T09:17:20.083Z,-1.30
2018-03-17T09:19:48.375Z,-1.10
2018-03-17T09:22:21.621Z,-1.60
2018-03-17T09:24:50.764Z,-1.10
2018-03-17T09:27:19.032Z,-1.10
2018-03-17T09:29:47.343Z,-1.20
2018-03-17T09:32:15.606Z,-1.00
2018-03-17T09:34:43.955Z,-1.10
2018-03-17T09:37:12.186Z,-0.80
2018-03-17T09:39:40.473Z,-0.90
2018-03-17T09:42:08.721Z,-1.00
2018-03-17T09:44:37.108Z,-1.10
2018-03-17T09:47:05.487Z,-1.50
2018-03-17T09:49:33.765Z,-1.40
2018-03-17T09:52:02.060Z,-1.30
2018-03-17T09:54:30.337Z,-1.30
2018-03-17T09:56:58.632Z,-1.40
2018-03-17T09:59:27.658Z,-1.40
2018-03-17T10:01:55.944Z,-1.40
2018-03-17T10:04:24.278Z,-1.20
2018-03-17T10:06:52.541Z,-0.80
2018-03-17T10:09:21.570Z,-0.80
2018-03-17T10:11:49.845Z,-0.80
2018-03-17T10:14:18.117Z,-0.80
2018-03-17T10:16:47.184Z,-1.00
2018-03-17T10:19:15.444Z,-1.00
2018-03-17T10:21:43.705Z,-0.70
2018-03-17T10:24:11.997Z,-0.70
2018-03-17T10:26:40.266Z,-0.60
2018-03-17T10:29:08.552Z,-0.60
2018-03-17T10:31:36.804Z,-0.50
2018-03-17T10:34:05.124Z,-1.10
2018-03-17T10:36:33.353Z,-0.70
2018-03-17T10:39:01.633Z,-0.60
2018-03-17T10:41:29.892Z,-0.90
2018-03-17T10:43:58.167Z,-0.90
2018-03-17T10:46:27.097Z,-0.90
2018-03-17T10:48:55.372Z,-0.80
2018-03-17T10:51:23.646Z,-0.80
2018-03-17T10:53:51.939Z,-0.70
2018-03-17T10:56:20.187Z,-0.40
2018-03-17T10:58:48.444Z,-0.40
2018-03-17T11:01:20.696Z,-0.50
2018-03-17T11:03:49.723Z,-0.10
2018-03-17T11:06:18.047Z,-0.20
2018-03-17T11:08:46.310Z,-0.10
2018-03-17T11:11:14.572Z,-0.20
2018-03-17T11:13:42.842Z,0.40
2018-03-17T11:16:11.124Z,0.50
2018-03-17T11:18:39.376Z,0.40
2018-03-17T11:21:07.653Z,0.50
2018-03-17T11:23:35.912Z,0.20
2018-03-17T11:26:05.033Z,0.00
2018-03-17T11:28:33.296Z,0.00
2018-03-17T11:31:01.598Z,0.00
2018-03-17T11:33:29.857Z,0.50
2018-03-17T11:35:58.126Z,0.60
2018-03-17T11:38:27.192Z,1.10
2018-03-17T11:40:55.464Z,1.00
2018-03-17T11:43:23.829Z,1.10
2018-03-17T11:45:52.076Z,1.70
2018-03-17T11:48:20.393Z,1.50
2018-03-17T11:50:48.645Z,1.70
2018-03-17T11:53:16.934Z,1.90
2018-03-17T11:55:45.196Z,2.00
2018-03-17T11:58:13.480Z,2.10
2018-03-17T12:00:41.757Z,2.10
2018-03-17T12:03:10.057Z,2.30
2018-03-17T12:05:38.308Z,2.60
2018-03-17T12:08:06.591Z,2.60
2018-03-17T12:10:34.874Z,2.50
2018-03-17T12:13:03.135Z,2.10
2018-03-17T12:15:31.444Z,2.20
2018-03-17T12:18:01.216Z,1.80
2018-03-17T12:20:29.493Z,1.70
2018-03-17T12:22:57.748Z,1.70
2018-03-17T12:25:26.028Z,1.60
2018-03-17T12:27:54.290Z,2.10
2018-03-17T12:30:23.342Z,1.40
2018-03-17T12:32:51.596Z,1.30
2018-03-17T12:35:19.897Z,1.70
2018-03-17T12:37:48.179Z,1.80
2018-03-17T12:40:16.557Z,2.00
2018-03-17T12:42:44.816Z,2.00
2018-03-17T12:45:13.098Z,1.50
2018-03-17T12:47:41.345Z,1.70
2018-03-17T12:50:09.624Z,2.10
2018-03-17T12:52:37.893Z,2.40
2018-03-17T12:55:06.201Z,2.40
2018-03-17T12:57:34.451Z,2.70
2018-03-17T13:00:02.771Z,2.70
2018-03-17T13:02:31.059Z,2.70
2018-03-17T13:04:59.332Z,3.00
2018-03-17T13:07:27.591Z,2.60
2018-03-17T13:09:55.879Z,1.90
2018-03-17T13:12:24.260Z,2.20
2018-03-17T13:14:53.043Z,1.90
2018-03-17T13:17:21.419Z,2.40
2018-03-17T13:19:49.743Z,2.80
2018-03-17T13:22:18.796Z,3.10
2018-03-17T13:24:47.073Z,3.10
2018-03-17T13:27:27.213Z,3.10
2018-03-17T13:29:55.480Z,3.20
2018-03-17T13:35:20.195Z,3.80
2018-03-17T13:37:48.505Z,3.90
2018-03-17T13:40:28.673Z,3.40
2018-03-17T13:42:57.799Z,3.60
2018-03-17T13:45:26.832Z,3.50
2018-03-17T13:47:55.119Z,3.50
2018-03-17T13:50:23.456Z,3.10
2018-03-17T13:52:51.701Z,2.90
2018-03-17T13:55:19.972Z,2.60
2018-03-17T13:57:48.236Z,2.90
2018-03-17T14:00:16.508Z,3.00
2018-03-17T14:02:44.876Z,3.10
2018-03-17T14:05:13.136Z,2.50
2018-03-17T14:07:41.421Z,3.30
2018-03-17T14:10:09.688Z,3.90
2018-03-17T14:12:38.031Z,4.50
2018-03-17T14:15:06.279Z,5.60
2018-03-17T14:17:34.582Z,5.30
2018-03-17T14:20:03.611Z,6.00
2018-03-17T14:22:31.934Z,6.00
2018-03-17T14:25:00.335Z,7.50
2018-03-17T14:27:28.692Z,8.20
2018-03-17T14:29:56.961Z,7.20
2018-03-17T14:32:25.253Z,7.80
2018-03-17T14:34:54.309Z,7.10
2018-03-17T14:37:22.568Z,7.10
2018-03-17T14:39:50.842Z,5.90
2018-03-17T14:42:19.933Z,5.20
2018-03-17T14:44:48.165Z,5.20
2018-03-17T14:47:16.428Z,5.70
2018-03-17T14:49:44.720Z,5.40
2018-03-17T14:52:12.980Z,4.70
2018-03-17T14:54:41.273Z,4.90
2018-03-17T14:57:09.660Z,4.90
2018-03-17T14:59:37.953Z,4.50
2018-03-17T15:02:06.294Z,3.70
2018-03-17T15:04:34.537Z,3.20
2018-03-17T15:07:02.830Z,3.10
2018-03-17T15:09:31.091Z,3.20
2018-03-17T15:12:00.069Z,2.30
2018-03-17T15:14:29.102Z,1.70
2018-03-17T15:16:57.395Z,1.70
2018-03-17T15:19:25.657Z,1.30
2018-03-17T15:21:53.979Z,1.90
2018-03-17T15:24:22.247Z,2.00
2018-03-17T15:26:51.272Z,3.20
2018-03-17T15:29:19.552Z,3.20
2018-03-17T15:31:48.587Z,3.10
2018-03-17T15:34:16.857Z,3.10
2018-03-17T15:36:45.121Z,3.40
2018-03-17T15:39:13.421Z,4.00
2018-03-17T15:41:41.671Z,4.60
2018-03-17T15:44:10.009Z,5.60
2018-03-17T15:46:39.035Z,6.10
2018-03-17T15:49:07.348Z,6.10
2018-03-17T15:51:35.591Z,6.30
2018-03-17T15:54:03.844Z,6.60
2018-03-17T15:56:32.108Z,6.90
2018-03-17T15:59:02.740Z,6.20
2018-03-17T16:01:31.010Z,6.20
2018-03-17T16:03:59.284Z,6.30
2018-03-17T16:06:27.549Z,6.70
2018-03-17T16:08:56.607Z,6.80
2018-03-17T16:11:24.880Z,6.70
2018-03-17T16:13:53.284Z,6.20
2018-03-17T16:16:21.551Z,6.00
2018-03-17T16:18:49.808Z,5.90
2018-03-17T16:21:18.955Z,5.70
2018-03-17T16:23:47.201Z,5.70
2018-03-17T16:26:15.472Z,5.90
2018-03-17T16:28:43.735Z,4.80
2018-03-17T16:31:12.889Z,4.40
2018-03-17T16:33:41.136Z,4.30
2018-03-17T16:36:09.391Z,4.90
2018-03-17T16:38:37.683Z,5.00
2018-03-17T16:41:05.932Z,4.80
2018-03-17T16:43:34.981Z,5.00
2018-03-17T16:46:03.265Z,5.00
2018-03-17T16:48:32.170Z,4.70
2018-03-17T16:51:01.215Z,3.80
2018-03-17T16:53:29.486Z,3.80
2018-03-17T16:56:01.677Z,3.30
2018-03-17T16:58:29.963Z,2.60
2018-03-17T17:00:58.219Z,2.10
2018-03-17T17:03:27.405Z,1.70
2018-03-17T17:05:55.649Z,1.20
2018-03-17T17:08:23.932Z,1.00
2018-03-17T17:10:52.184Z,0.50
2018-03-17T17:13:20.508Z,0.50
2018-03-17T17:15:48.801Z,0.50
2018-03-17T17:18:17.087Z,0.40
2018-03-17T17:20:46.211Z,0.20
2018-03-17T17:23:14.490Z,0.00
2018-03-17T17:25:42.786Z,-0.10
2018-03-17T17:28:11.117Z,-0.10
2018-03-17T17:30:39.392Z,-0.10
2018-03-17T17:33:07.665Z,-0.20
2018-03-17T17:35:35.955Z,-0.30
2018-03-17T17:38:04.216Z,-0.30
2018-03-17T17:40:32.511Z,-0.40
2018-03-17T17:43:00.768Z,-0.50
2018-03-17T17:45:29.075Z,-0.80
2018-03-17T17:47:57.352Z,-0.90
2018-03-17T17:50:25.638Z,-0.90
2018-03-17T17:52:53.931Z,-0.90
2018-03-17T17:55:22.209Z,-0.90
2018-03-17T17:57:50.489Z,-0.90
2018-03-17T18:00:18.752Z,-1.00
2018-03-17T18:02:47.040Z,-1.00
2018-03-17T18:05:15.318Z,-1.00
2018-03-17T18:07:43.597Z,-0.90
2018-03-17T18:10:11.980Z,-0.80
2018-03-17T18:12:40.262Z,-0.90
2018-03-17T18:15:09.303Z,-1.10
2018-03-17T18:17:37.593Z,-1.10
2018-03-17T18:20:05.856Z,-1.20
2018-03-17T18:22:34.149Z,-1.20
2018-03-17T18:25:02.438Z,-1.30
2018-03-17T18:27:30.820Z,-1.30
2018-03-17T18:29:59.105Z,-1.30
2018-03-17T18:32:27.413Z,-1.30
2018-03-17T18:34:56.570Z,-1.30
2018-03-17T18:37:24.870Z,-1.30
2018-03-17T18:39:53.140Z,-1.30
2018-03-17T18:42:21.418Z,-1.30
2018-03-17T18:44:49.777Z,-1.40
2018-03-17T18:47:18.070Z,-1.40
2018-03-17T18:49:46.330Z,-1.40
2018-03-17T18:52:14.614Z,-1.40
2018-03-17T18:54:43.004Z,-1.40
2018-03-17T18:57:11.289Z,-1.50
2018-03-17T18:59:39.552Z,-1.50
2018-03-17T19:02:07.925Z,-1.40
2018-03-17T19:04:36.208Z,-1.50
2018-03-17T19:07:04.505Z,-1.50
2018-03-17T19:09:32.785Z,-1.50
2018-03-17T19:12:01.857Z,-1.50
2018-03-17T19:14:30.116Z,-1.50
2018-03-17T19:16:58.387Z,-1.50
2018-03-17T19:19:26.891Z,-1.60
2018-03-17T19:21:55.988Z,-1.60
2018-03-17T19:24:24.281Z,-1.70
2018-03-17T19:26:52.543Z,-1.60
2018-03-17T19:29:21.651Z,-1.70
2018-03-17T19:31:49.941Z,-1.70
2018-03-17T19:34:18.222Z,-1.70
2018-03-17T19:36:47.281Z,-1.70
2018-03-17T19:39:15.566Z,-1.70
2018-03-17T19:41:43.828Z,-1.70
2018-03-17T19:44:12.121Z,-1.70
2018-03-17T19:46:40.384Z,-1.60
2018-03-17T19:49:08.681Z,-1.70
2018-03-17T19:51:36.948Z,-1.80
2018-03-17T19:54:05.229Z,-1.70
2018-03-17T19:56:33.532Z,-1.70
2018-03-17T19:59:02.560Z,-1.70
2018-03-17T20:01:30.867Z,-1.70
2018-03-17T20:03:59.141Z,-1.60
2018-03-17T20:06:27.419Z,-1.60
2018-03-17T20:08:55.697Z,-1.70
2018-03-17T20:11:24.004Z,-1.80
2018-03-17T20:13:52.273Z,-1.80
2018-03-17T20:16:20.569Z,-1.80
2018-03-17T20:18:49.622Z,-1.80
2018-03-17T20:21:17.932Z,-1.90
2018-03-17T20:23:46.966Z,-1.90
2018-03-17T20:26:15.240Z,-1.90
2018-03-17T20:28:43.533Z,-2.00
2018-03-17T20:31:11.813Z,-2.00
2018-03-17T20:33:40.114Z,-2.10
2018-03-17T20:36:08.442Z,-2.10
2018-03-17T20:38:36.745Z,-2.10
2018-03-17T20:41:05.011Z,-2.10
2018-03-17T20:43:33.328Z,-2.10
2018-03-17T20:46:01.620Z,-2.10
2018-03-17T20:48:29.914Z,-2.20
2018-03-17T20:50:58.944Z,-2.20
2018-03-17T20:53:27.244Z,-2.20
2018-03-17T20:55:55.521Z,-2.20
2018-03-17T20:58:23.788Z,-2.10
2018-03-17T21:00:52.070Z,-2.10
2018-03-17T21:03:20.430Z,-2.10
2018-03-17T21:05:48.847Z,-2.20
2018-03-17T21:08:17.129Z,-2.20
2018-03-17T21:10:45.425Z,-2.20
2018-03-17T21:13:14.463Z,-2.30
2018-03-17T21:15:42.752Z,-2.30
2018-03-17T21:18:11.029Z,-2.30
2018-03-17T21:20:39.348Z,-2.40
2018-03-17T21:23:08.389Z,-2.50
2018-03-17T21:25:36.652Z,-2.50
2018-03-17T21:28:04.947Z,-2.50
2018-03-17T21:30:33.204Z,-2.50
2018-03-17T21:33:01.502Z,-2.70
2018-03-17T21:35:29.809Z,-2.60
2018-03-17T21:37:58.196Z,-2.50
2018-03-17T21:40:27.233Z,-2.50
2018-03-17T21:42:55.574Z,-2.60
2018-03-17T21:45:23.845Z,-2.50
2018-03-17T21:47:52.951Z,-2.60
2018-03-17T21:50:21.212Z,-2.60
2018-03-17T21:52:49.488Z,-2.60
2018-03-17T21:55:17.872Z,-2.60
2018-03-17T21:57:46.132Z,-2.70
2018-03-17T22:00:14.529Z,-2.70
2018-03-17T22:02:42.788Z,-2.60
2018-03-17T22:05:11.096Z,-2.70
2018-03-17T22:07:39.381Z,-2.60
2018-03-17T22:10:07.839Z,-2.70
2018-03-17T22:12:36.115Z,-2.60
2018-03-17T22:15:04.464Z,-2.60
2018-03-17T22:17:32.760Z,-2.80
2018-03-17T22:20:01.027Z,-2.80
2018-03-17T22:22:29.312Z,-2.80
2018-03-17T22:24:57.593Z,-2.70
2018-03-17T22:27:25.881Z,-2.80
2018-03-17T22:29:54.154Z,-2.70
2018-03-17T22:32:22.447Z,-2.70
2018-03-17T22:34:50.717Z,-2.80
2018-03-17T22:37:18.988Z,-2.80
2018-03-17T22:39:47.289Z,-2.90
2018-03-17T22:42:15.636Z,-3.00
2018-03-17T22:44:43.930Z,-3.00
2018-03-17T22:47:12.201Z,-3.00
2018-03-17T22:49:40.493Z,-3.00
2018-03-17T22:52:09.529Z,-3.00
2018-03-17T22:54:37.848Z,-3.00
2018-03-17T22:57:06.122Z,-3.00
2018-03-17T22:59:34.390Z,-3.10
2018-03-17T23:02:02.789Z,-3.10
2018-03-17T23:04:31.062Z,-3.10
2018-03-17T23:06:59.349Z,-3.10
2018-03-17T23:09:27.617Z,-3.10
2018-03-17T23:11:55.907Z,-3.10
2018-03-17T23:14:24.173Z,-3.20
2018-03-17T23:16:52.468Z,-3.10
2018-03-17T23:19:21.513Z,-3.20
2018-03-17T23:21:49.820Z,-3.20
2018-03-17T23:24:18.199Z,-3.10
2018-03-17T23:26:46.492Z,-3.20
2018-03-17T23:29:14.777Z,-3.10
2018-03-17T23:31:43.813Z,-3.20
2018-03-17T23:34:12.095Z,-3.20
2018-03-17T23:36:40.364Z,-3.20
2018-03-17T23:39:08.831Z,-3.20
2018-03-17T23:41:37.119Z,-3.20
2018-03-17T23:44:05.391Z,-3.20
2018-03-17T23:46:33.677Z,-3.30
2018-03-17T23:49:01.935Z,-3.40
2018-03-17T23:51:30.308Z,-3.50
2018-03-17T23:53:59.380Z,-3.40
2018-03-17T23:56:27.665Z,-3.40
2018-03-17T23:58:55.932Z,-3.40
